Wednesday, June 20, 2018, 5:15 PM EDT
Back to Local

KRUT, Rutland, Rutland-southern Vermont Regional Airport

Location: North Clarendon, VT, United States Lat: 43.533
Local Time: 5:15 PM EDT (21:15 GMT) Lon: -72.95
Time Zone: US/Eastern Elev: 787 ft

Show me the last for .
Show Coded

Time T Td Feel RH Dir Speed Gust Alt SLP Vis Weather Sky Remarks
2018-06-20 15:56 74 52 77 46 190° 7 - 29.81 29.86 10 CLR None
2018-06-20 14:56 73 48 76 41 210° 7 - 29.83 29.87 10 CLR None
2018-06-20 13:56 73 51 76 46 230° 10 - 29.84 29.88 10 CLR 6-hr Min Temp (2pm): 57.0°F
6-hr Max Temp (2pm): 73.9°F
2018-06-20 12:56 73 49 76 42 300° 5 - 29.85 29.89 10 CLR None
2018-06-20 11:56 72 50 76 45 230° 9 - 29.86 29.90 10 CLR None
2018-06-20 10:56 71 52 76 50 Variable 3 - 29.89 29.93 10 CLR None
2018-06-20 09:56 67 52 - 58 - Calm - 29.91 29.95 10 CLR None
2018-06-20 08:56 61 52 - 72 170° 5 - 29.93 29.97 10 CLR None
2018-06-20 07:56 57 50 - 77 - Calm - 29.95 29.99 10 CLR 6-hr Min Temp (8am): 48.0°F
6-hr Max Temp (8am): 57.0°F
2018-06-20 06:56 52 47 - 82 120° 9 - 29.94 29.99 10 CLR None
2018-06-20 05:56 49 46 45 89 120° 9 - 29.93 29.98 10 CLR None
2018-06-20 04:56 49 46 44 89 120° 12 - 29.92 29.97 10 CLR None
2018-06-20 03:56 50 47 46 89 120° 9 - 29.92 29.97 10 CLR None
2018-06-20 02:56 51 48 - 89 130° 6 - 29.93 29.98 10 CLR None
2018-06-20 01:56 52 50 - 92 130° 6 - 29.93 29.98 10 CLR 6-hr Min Temp (2am): 52.0°F
6-hr Max Temp (2am): 68.0°F
2018-06-20 00:56 53 50 - 89 150° 7 - 29.94 29.99 10 CLR 24-hr Min Temp (1am): 53.1°F
24-hr Max Temp (1am): 72.0°F
2018-06-19 23:56 55 51 - 86 140° 9 - 29.94 29.99 10 CLR None
2018-06-19 22:56 56 52 - 86 110° 3 - 29.94 29.99 10 CLR None
2018-06-19 21:56 59 53 - 80 120° 6 - 29.93 29.97 10 CLR None
2018-06-19 20:56 65 51 - 60 300° 6 - 29.91 29.95 10 CLR None
2018-06-19 19:56 69 52 - 54 280° 5 - 29.90 29.93 10 CLR 6-hr Min Temp (8pm): 68.0°F
6-hr Max Temp (8pm): 72.0°F
2018-06-19 18:56 71 50 76 47 320° 9 - 29.88 29.92 10 CLR None
2018-06-19 17:56 72 49 76 44 330° 12 - 29.87 29.90 10 CLR None

Support USWX by starting your Amazon purchase here.